AirNav   Air Wisconsin pilot careers
 
 1040 users online  

1G8 Eddie Dew Memorial Airpark
Toronto, Ohio, USA

GOING TO TORONTO?


FAA INFORMATION EFFECTIVE 21 JUNE 2018

Location

FAA Identifier: 1G8
Lat/Long: 40-28-33.2380N / 080-37-41.2650W
40-28.553967N / 080-37.687750W
40.4758994 / -80.6281292
(estimated)
Elevation: 1084 ft. / 330.4 m (surveyed)
Variation: 07W (1985)
From city: 2 miles NW of TORONTO, OH
Time zone: UTC -4 (UTC -5 during Standard Time)
Zip code: 43964

Airport Operations

Airport use: Open to the public
Activation date: 12/1937
Control tower: no
ARTCC: CLEVELAND CENTER
FSS: CLEVELAND FLIGHT SERVICE STATION
NOTAMs facility: CLE (NOTAM-D service available)
Attendance: IREG
Wind indicator: yes
Segmented circle: no
Lights: ACTVT LIRL RY 16/34 - CTAF.

Airport Communications

CTAF: 122.9
WX ASOS at PIT (18 nm E): PHONE 412-472-0145
WX ASOS at HLG (18 nm S): 127.375 (304-277-3504)
  • CTAF/MULTICOM 122.9MHZ

Nearby radio navigation aids

VOR radial/distance  VOR name  Freq  Var
HLGr355/13.2WHEELING VOR/DME112.2007W
EWCr230/28.3ELLWOOD CITY VOR/DME115.8008W
AIRr024/28.9BELLAIRE VOR/DME117.1007W
AGCr303/29.3ALLEGHENY VOR/DME110.0009W
BSVr117/39.9BRIGGS VOR/DME112.4004W

 
NDB name  Hdg/Dist  Freq  Var  ID
CADIZ058/22.723907WCFX -.-. ..-. -..-
CASTLE205/34.227209WUCP ..- -.-. .--.

Airport Services

Parking: tiedowns
Airframe service: NONE
Powerplant service: NONE
Bottled oxygen: NONE
Bulk oxygen: NONE

Runway Information

Runway 16/34

Dimensions: 2268 x 145 ft. / 691 x 44 m
Surface: turf, in good condition
Runway edge lights: non-standard
NSTD LIRL; RY ENDS MKD WITH 360 DEG GREEN LGTS.
RUNWAY 16  RUNWAY 34
Latitude: 40-28.370500N40-28.022333N
Longitude: 080-37.587667W080-37.421833W
Elevation: 1084.0 ft.1084.0 ft.
Traffic pattern: leftleft
Runway end identifier lights: nono
Obstructions: 35 ft. trees, 100 ft. left of centerline
RWY 16: ALSO +15FT RD 35 FT FM RWY 16 90FT L&R, 2:1; +15FT RD 55 FT FM RWY 16 ON CL, 5:1 SLOPE.
20 ft. trees, 110 ft. right of centerline

Airport Ownership and Management from official FAA records

Ownership: Privately-owned
Owner: EDDIE DEW MEM AIRPARK
611 TOWNSHIP HWY 245
TORONTO, OH 43964
Phone 740-512-3138
Manager: RICH GRANTONIC
RD 2, BOX 159A
TORONTO, OH 43964
Phone (740) 632-3332
ADDL CTC: MANAGERS CELL (740) 632-3332, RICHG645@GMAIL.COM

Airport Operational Statistics

Aircraft based on the field: 23
Single engine airplanes: 20
Helicopters: 1
Ultralights: 2
    
Aircraft operations: avg 32/week *
97% local general aviation
3% transient general aviation
* for 12-month period ending 12 August 2017

Additional Remarks

DEER, BIRDS & OTHER WILDLIFE ON & INVOF AIRPORT

Instrument Procedures

There are no published instrument procedures at 1G8.

Some nearby airports with instrument procedures:

2G2 - Jefferson County Airpark (8 nm SW)
02G - Columbiana County Airport (12 nm N)
KPIT - Pittsburgh International Airport (18 nm E)
KHLG - Wheeling Ohio County Airport (18 nm S)
KBVI - Beaver County Airport (21 nm NE)
 
Loc | Ops | Rwys | IFR | FBO | Links
Com | Nav | Svcs | Stats | Notes

City of Findlay
 
Area around 1G8 (Eddie Dew Memorial Airpark)
 
Road maps at: MapQuest Bing Google
 
Aerial photo
WARNING: Photo may not be current or correct
Aerial photo of 1G8 (Eddie Dew Memorial Airpark)
Photo by Steve Kalasky
Taken early October 2010
looking northwest.

Do you have a better or more recent aerial photo of Eddie Dew Memorial Airpark that you would like to share? If so, please send us your photo.

 
Sectional chart

 
Airport distance calculator
Flying to Eddie Dew Memorial Airpark? Find the distance to fly.

From to 1G8

Sunrise and sunset
Times for 15-Jul-2018
 Local
(UTC-4)
 Zulu
(UTC)
Morning civil twilight05:3409:34
Sunrise06:0610:06
Sunset20:5100:51
Evening civil twilight21:2301:23

Current date and time
Zulu (UTC)  15-Jul-2018 23:31:43
Local (UTC-4)  15-Jul-2018 19:31:43
 
METAR
KPIT 
17nm E 
152319Z 21007KT 10SM SCT050 BKN070 24/22 A3000 RMK AO2 TSE19 CB DSNT SE AND NW P0007 T02390217
KHLG 
19nm S 
152253Z 20004KT 10SM CLR 24/20 A3002 RMK AO2 LTG DSNT NE AND E SLP159 T02440200
KBVI 
20nm NE 
152047Z 00000KT 10SM BKN050 31/20 A2999 RMK LTG DSNT SE LAST
KAFJ 
27nm SE 
152256Z AUTO 14004KT 10SM SCT055 27/20 A3005 RMK AO2 LTG DSNT N AND NE TSB04E34 SLP166 T02720200
TAF
KPIT 
17nm E 
152055Z 1521/1624 24005KT P6SM VCTS BKN040CB FM152300 22003KT P6SM BKN040 FM161400 19005KT P6SM SCT040
KHLG 
19nm S 
151720Z 1518/1618 VRB05KT P6SM BKN040 FM151900 23005KT P6SM VCTS BKN040CB FM152300 VRB03KT P6SM SCT040 FM160800 00000KT 3SM BR SCT100 FM161400 19005KT P6SM SCT040
KBVI 
20nm NE 
151720Z 1518/1618 18003KT P6SM SCT040 BKN200 FM152100 24005KT P6SM VCTS BKN040CB FM152300 22003KT P6SM BKN040 FM161400 19005KT P6SM BKN035
NOTAMs
Click for the latest NOTAMs
NOTAMs are issued by the DoD/FAA and will open in a separate window not controlled by AirNav.

 

 
 

Would you like to see your business listed on this page?

 If your business provides an interesting product or service to pilots, flight crews, aircraft, or users of the Eddie Dew Memorial Airpark, you should consider listing it here.  To start the listing process, click on the button below
 
Add a business
 

Other Pages about Eddie Dew Memorial Airpark

Update a link
 
Copyright © AirNav, LLC. All rights reserved. Privacy Policy  Contact